»·PEaware :: AAL250 KBUR-KSFO

AAL250 :: KBUR-KSFO

FLIGHT INFORMATION

Flight Status: Arrived
Operator:
American Airlines
More flights by this operator :: More flights under this callsign
Pilot: Anonymous 13363 (13363)
Aircraft: MCDONNELL-DOUGLAS MD-88
(MD88)
More flights by this aircraft type
Origin: KBUR Bob Hope-Burbank
United States
Destination: KSFO San Francisco Intl
United States
More flights between these airports :: More routes between these airports
Route: OROSZ1 COREZ MAKRS SERFR SERFR2
File this flight plan on PilotEdge
Remarks:
Altitude:
(Current/Filed)
36,000ft
Speed:
(Current/Filed)
460kts
Departed: 16-Jun-17 11:37 AM
Arrived: 16-Jun-17 12:31 PM
Distance/Time
Traveled:
283nm/0:54
Distance/Time
To Go:
Arrived

Flight Plot

Page will automatically refresh every two minutes.

Flight plan parsing failed; only flown route is shown


Map Options




Map Legend


Flown Route
Filed Route
Departure Airport
Arrival Airport
Navaid (VOR, NDB)
Fix

Horizontal Profiles

Position Reports

Time Latitude Longitude Heading Altitude Ground
Speed
16-Jun-17 11:10 34.196876 -118.350176 179 782ft 0kts
16-Jun-17 11:11 34.196876 -118.350176 179 782ft 0kts
16-Jun-17 11:12 34.196876 -118.350176 179 782ft 0kts
16-Jun-17 11:13 34.196876 -118.350176 179 782ft 0kts
16-Jun-17 11:14 34.196876 -118.350176 179 782ft 0kts
16-Jun-17 11:15 34.196876 -118.350176 179 782ft 0kts
16-Jun-17 11:16 34.196876 -118.350176 179 782ft 0kts
16-Jun-17 11:18 34.196876 -118.350176 179 782ft 0kts
16-Jun-17 11:19 34.196876 -118.350176 179 782ft 0kts
16-Jun-17 11:20 34.196876 -118.350176 179 782ft 0kts
16-Jun-17 11:21 34.196876 -118.350176 179 782ft 0kts
16-Jun-17 11:22 34.196876 -118.350176 179 782ft 0kts
16-Jun-17 11:23 34.196876 -118.350176 179 782ft 0kts
16-Jun-17 11:24 34.196876 -118.350176 179 782ft 0kts
16-Jun-17 11:25 34.196876 -118.350176 179 782ft 0kts
16-Jun-17 11:26 34.196876 -118.350176 179 782ft 0kts
16-Jun-17 11:27 34.196876 -118.350176 179 782ft 0kts
16-Jun-17 11:28 34.196876 -118.350176 179 782ft 0kts
16-Jun-17 11:29 34.196876 -118.350176 179 782ft 0kts
16-Jun-17 11:30 34.196876 -118.350176 179 782ft 0kts
16-Jun-17 11:31 34.196877 -118.350176 179 782ft 0kts
16-Jun-17 11:32 34.197150 -118.349784 271 782ft 0kts
16-Jun-17 11:33 34.197150 -118.349784 271 782ft 0kts
16-Jun-17 11:34 34.197164 -118.349995 274 782ft 4kts
16-Jun-17 11:35 34.197215 -118.351349 272 782ft 14kts
16-Jun-17 11:36 34.197293 -118.355102 307 782ft 9kts
16-Jun-17 11:37 34.202054 -118.356252 347 782ft 21kts
16-Jun-17 11:38 34.207501 -118.357787 347 782ft 22kts
16-Jun-17 11:39 34.211956 -118.359619 304 782ft 15kts
16-Jun-17 11:40 34.193042 -118.355429 171 966ft 163kts
16-Jun-17 11:41 34.148506 -118.366474 223 2839ft 220kts
16-Jun-17 11:42 34.108359 -118.442799 278 5348ft 337kts
16-Jun-17 11:43 34.164399 -118.512976 323 10962ft 315kts
16-Jun-17 11:44 34.241833 -118.572460 332 12994ft 351kts
16-Jun-17 11:45 34.330994 -118.622406 335 14115ft 375kts
16-Jun-17 11:46 34.417978 -118.669489 333 17796ft 390kts
16-Jun-17 11:47 34.512992 -118.734914 328 21480ft 401kts
16-Jun-17 11:48 34.609896 -118.803606 328 24673ft 415kts
16-Jun-17 11:49 34.697573 -118.866133 328 27153ft 427kts
16-Jun-17 11:50 34.800243 -118.939363 329 29810ft 443kts
16-Jun-17 11:51 34.905082 -119.014097 330 33061ft 438kts
16-Jun-17 11:52 35.007878 -119.087436 329 35968ft 428kts
16-Jun-17 11:53 35.107260 -119.159183 330 35986ft 426kts
16-Jun-17 11:54 35.206878 -119.231103 330 35993ft 426kts
16-Jun-17 11:55 35.308597 -119.304565 330 35993ft 426kts
16-Jun-17 11:56 35.410311 -119.378027 330 35993ft 426kts
16-Jun-17 11:57 35.512332 -119.451665 330 35993ft 426kts
16-Jun-17 11:58 35.572440 -119.569101 275 36008ft 431kts
16-Jun-17 11:59 35.589905 -119.710743 281 35998ft 431kts
16-Jun-17 12:00 35.610709 -119.854122 281 35997ft 431kts
16-Jun-17 12:01 35.631773 -119.998522 281 35995ft 431kts
16-Jun-17 12:02 35.653007 -120.143130 281 35993ft 431kts
16-Jun-17 12:03 35.674382 -120.287378 281 36020ft 431kts
16-Jun-17 12:04 35.708512 -120.426750 301 34807ft 426kts
16-Jun-17 12:05 35.760302 -120.555990 296 32772ft 419kts
16-Jun-17 12:06 35.807541 -120.680847 295 30821ft 412kts
16-Jun-17 12:07 35.855971 -120.808413 295 28849ft 415kts
16-Jun-17 12:08 35.904051 -120.934740 295 26856ft 407kts
16-Jun-17 12:09 35.951652 -121.059602 295 24832ft 398kts
16-Jun-17 12:10 35.997658 -121.180103 295 23934ft 385kts
16-Jun-17 12:11 36.043679 -121.300190 295 22640ft 385kts
16-Jun-17 12:12 36.103648 -121.394968 330 21599ft 381kts
16-Jun-17 12:13 36.184032 -121.455065 327 21321ft 383kts
16-Jun-17 12:14 36.273557 -121.525268 327 20931ft 381kts
16-Jun-17 12:15 36.362227 -121.594796 327 20537ft 376kts
16-Jun-17 12:16 36.449838 -121.663453 326 20155ft 374kts
16-Jun-17 12:17 36.537309 -121.732264 326 19870ft 375kts
16-Jun-17 12:18 36.624024 -121.801010 326 18615ft 367kts
16-Jun-17 12:19 36.709243 -121.868578 326 17422ft 361kts
16-Jun-17 12:20 36.802303 -121.911669 347 15792ft 361kts
16-Jun-17 12:21 36.899757 -121.938405 346 13641ft 358kts
16-Jun-17 12:22 36.992924 -121.968973 342 12095ft 337kts
16-Jun-17 12:23 37.078892 -122.002718 342 10613ft 321kts
16-Jun-17 12:24 37.156899 -122.033241 343 9264ft 299kts
16-Jun-17 12:25 37.232029 -122.062589 343 7894ft 271kts
16-Jun-17 12:26 37.301016 -122.089512 343 6567ft 253kts
16-Jun-17 12:26 37.355832 -122.110946 343 5512ft 247kts
16-Jun-17 12:27 37.419358 -122.135821 343 4597ft 236kts
16-Jun-17 12:29 37.489214 -122.162967 343 3886ft 213kts
16-Jun-17 12:29 37.533736 -122.184002 326 3568ft 179kts
16-Jun-17 12:30 37.561986 -122.239246 301 2024ft 188kts
16-Jun-17 12:32 37.588686 -122.304656 300 781ft 170kts
16-Jun-17 12:33 37.608463 -122.350857 303 154ft 127kts
16-Jun-17 12:34 37.617802 -122.372898 297 19ft 23kts
16-Jun-17 12:35 37.618999 -122.380147 279 19ft 15kts
16-Jun-17 12:36 37.618386 -122.382069 139 19ft 4kts

Navigation Log

Ident Type
Flight plan parsing failed, navigation log unavailable